createdAt,value
2023-03-22T00:00:42.957Z,2.50
2023-03-22T00:03:12.844Z,2.70
2023-03-22T00:05:41.343Z,3.80
2023-03-22T00:08:10.043Z,2.67
2023-03-22T00:10:39.770Z,2.93
2023-03-22T00:13:12.614Z,2.60
2023-03-22T00:15:45.537Z,3.10
2023-03-22T00:18:15.886Z,2.90
2023-03-22T00:20:52.169Z,2.60
2023-03-22T00:23:21.171Z,3.27
2023-03-22T00:25:51.373Z,3.03
2023-03-22T00:28:21.771Z,3.53
2023-03-22T00:30:55.464Z,3.20
2023-03-22T00:33:29.202Z,3.37
2023-03-22T00:36:01.919Z,3.27
2023-03-22T00:38:44.833Z,3.23
2023-03-22T00:41:17.268Z,3.30
2023-03-22T00:43:48.742Z,3.70
2023-03-22T00:46:19.963Z,3.53
2023-03-22T00:48:49.638Z,3.60
2023-03-22T00:51:18.731Z,3.17
2023-03-22T00:53:53.181Z,3.00
2023-03-22T00:56:22.958Z,3.27
2023-03-22T00:59:13.394Z,3.10
2023-03-22T01:01:43.302Z,3.77
2023-03-22T01:04:15.347Z,3.57
2023-03-22T01:06:47.060Z,3.73
2023-03-22T01:09:15.886Z,4.13
2023-03-22T01:11:46.155Z,4.20
2023-03-22T01:14:16.191Z,3.70
2023-03-22T01:16:44.685Z,4.13
2023-03-22T01:19:13.356Z,4.83
2023-03-22T01:21:41.831Z,4.00
2023-03-22T01:24:10.693Z,4.10
2023-03-22T01:26:40.768Z,4.00
2023-03-22T01:29:09.172Z,4.47
2023-03-22T01:31:42.596Z,4.50
2023-03-22T01:34:13.024Z,3.63
2023-03-22T01:36:41.698Z,4.70
2023-03-22T01:39:10.706Z,4.50
2023-03-22T01:41:41.232Z,4.67
2023-03-22T01:44:20.871Z,5.67
2023-03-22T01:46:53.275Z,4.90
2023-03-22T01:49:28.800Z,6.67
2023-03-22T01:52:01.785Z,6.80
2023-03-22T01:54:55.097Z,7.63
2023-03-22T01:57:37.756Z,8.70
2023-03-22T02:00:15.975Z,10.33
2023-03-22T02:03:26.189Z,10.30
2023-03-22T02:05:56.069Z,11.17
2023-03-22T02:08:33.940Z,12.27
2023-03-22T02:11:11.276Z,12.13
2023-03-22T02:14:05.588Z,12.50
2023-03-22T02:17:11.445Z,12.50
2023-03-22T02:20:53.210Z,12.87
2023-03-22T02:24:03.126Z,13.33
2023-03-22T02:27:27.013Z,12.67
2023-03-22T02:30:18.104Z,12.60
2023-03-22T02:33:24.565Z,13.50
2023-03-22T02:36:32.815Z,13.40
2023-03-22T02:39:23.927Z,13.57
2023-03-22T02:42:21.391Z,13.10
2023-03-22T02:45:03.012Z,11.83
2023-03-22T02:47:41.631Z,12.60
2023-03-22T02:50:17.457Z,13.33
2023-03-22T02:52:52.748Z,13.73
2023-03-22T02:55:34.098Z,13.27
2023-03-22T02:58:11.532Z,12.67
2023-03-22T03:00:42.688Z,12.97
2023-03-22T03:03:18.399Z,11.87
2023-03-22T03:05:52.754Z,11.43
2023-03-22T03:08:24.015Z,12.57
2023-03-22T03:10:56.269Z,12.20
2023-03-22T03:13:24.802Z,11.87
2023-03-22T03:16:01.816Z,12.03
2023-03-22T03:18:49.133Z,10.20
2023-03-22T03:21:35.162Z,11.43
2023-03-22T03:24:22.728Z,12.20
2023-03-22T03:27:00.391Z,11.20
2023-03-22T03:29:39.762Z,11.10
2023-03-22T03:32:16.713Z,11.93
2023-03-22T03:34:52.817Z,11.10
2023-03-22T03:37:26.347Z,10.47
2023-03-22T03:40:04.831Z,11.07
2023-03-22T03:42:39.989Z,11.27
2023-03-22T03:45:10.505Z,10.03
2023-03-22T03:47:45.804Z,11.77
2023-03-22T03:50:16.799Z,10.73
2023-03-22T03:52:53.813Z,10.60
2023-03-22T03:55:23.690Z,11.37
2023-03-22T03:57:53.553Z,11.17
2023-03-22T04:00:21.918Z,9.60
2023-03-22T04:03:13.843Z,10.10
2023-03-22T04:05:56.898Z,8.73
2023-03-22T04:08:25.340Z,9.23
2023-03-22T04:10:54.168Z,9.60
2023-03-22T04:13:25.169Z,9.47
2023-03-22T04:15:57.491Z,9.43
2023-03-22T04:18:27.708Z,8.77
2023-03-22T04:20:57.134Z,9.43
2023-03-22T04:23:26.489Z,8.70
2023-03-22T04:25:54.914Z,9.07
2023-03-22T04:28:36.144Z,7.07
2023-03-22T04:31:04.550Z,8.90
2023-03-22T04:33:56.676Z,8.30
2023-03-22T04:36:36.602Z,8.83
2023-03-22T04:39:20.299Z,8.43
2023-03-22T04:41:57.683Z,7.40
2023-03-22T04:44:28.056Z,7.50
2023-03-22T04:46:56.936Z,8.13
2023-03-22T04:49:26.770Z,9.10
2023-03-22T04:51:56.483Z,7.40
2023-03-22T04:54:33.378Z,7.47
2023-03-22T04:57:02.678Z,8.00
2023-03-22T04:59:36.995Z,7.20
2023-03-22T05:02:05.820Z,8.27
2023-03-22T05:04:41.673Z,7.70
2023-03-22T05:07:30.288Z,6.67
2023-03-22T05:10:00.781Z,6.60
2023-03-22T05:12:29.886Z,6.70
2023-03-22T05:15:06.177Z,6.13
2023-03-22T05:17:37.937Z,6.87
2023-03-22T05:20:10.298Z,6.33
2023-03-22T05:22:40.938Z,7.50
2023-03-22T05:25:12.014Z,6.90
2023-03-22T05:27:44.560Z,6.20
2023-03-22T05:30:33.799Z,5.60
2023-03-22T05:33:13.240Z,5.53
2023-03-22T05:35:46.430Z,5.30
2023-03-22T05:38:16.976Z,5.57
2023-03-22T05:40:50.787Z,5.70
2023-03-22T05:43:19.556Z,5.80
2023-03-22T05:45:53.052Z,5.17
2023-03-22T05:48:37.095Z,4.93
2023-03-22T05:51:08.608Z,5.00
2023-03-22T05:53:37.556Z,4.60
2023-03-22T05:56:11.759Z,4.87
2023-03-22T05:58:42.289Z,4.57
2023-03-22T06:01:19.392Z,4.73
2023-03-22T06:03:48.513Z,4.20
2023-03-22T06:06:43.179Z,4.43
2023-03-22T06:09:18.258Z,5.17
2023-03-22T06:11:51.211Z,4.10
2023-03-22T06:14:21.200Z,4.40
2023-03-22T06:17:03.835Z,3.50
2023-03-22T06:19:32.281Z,3.60
2023-03-22T06:22:03.809Z,3.53
2023-03-22T06:24:34.851Z,3.63
2023-03-22T06:27:04.178Z,3.00
2023-03-22T06:29:33.525Z,3.80
2023-03-22T06:32:06.288Z,3.27
2023-03-22T06:34:35.374Z,3.53
2023-03-22T06:37:04.294Z,3.57
2023-03-22T06:39:36.063Z,2.87
2023-03-22T06:42:04.953Z,2.87
2023-03-22T06:44:34.081Z,3.80
2023-03-22T06:47:22.398Z,2.73
2023-03-22T06:49:59.789Z,3.57
2023-03-22T06:52:43.163Z,2.83
2023-03-22T06:55:11.902Z,3.00
2023-03-22T06:57:40.783Z,2.90
2023-03-22T07:00:13.067Z,3.50
2023-03-22T07:02:42.777Z,3.00
2023-03-22T07:05:33.770Z,3.23
2023-03-22T07:08:02.157Z,3.03
2023-03-22T07:10:31.045Z,3.40
2023-03-22T07:13:00.607Z,3.27
2023-03-22T07:15:29.104Z,3.00
2023-03-22T07:18:21.703Z,2.93
2023-03-22T07:20:50.216Z,3.10
2023-03-22T07:23:19.309Z,2.30
2023-03-22T07:25:53.508Z,2.93
2023-03-22T07:28:29.344Z,3.07
2023-03-22T07:31:02.969Z,3.00
2023-03-22T07:33:38.667Z,3.33
2023-03-22T07:36:10.388Z,2.97
2023-03-22T07:38:39.342Z,3.50
2023-03-22T07:41:12.354Z,3.10
2023-03-22T07:44:07.761Z,3.23
2023-03-22T07:46:47.939Z,3.00
2023-03-22T07:49:25.423Z,3.80
2023-03-22T07:52:13.026Z,4.17
2023-03-22T07:54:42.291Z,4.20
2023-03-22T07:57:11.238Z,3.60
2023-03-22T07:59:48.401Z,3.70
2023-03-22T08:02:17.195Z,3.50
2023-03-22T08:04:55.719Z,3.70
2023-03-22T08:07:45.035Z,4.40
2023-03-22T08:10:14.758Z,3.70
2023-03-22T08:12:43.238Z,3.43
2023-03-22T08:15:22.681Z,3.50
2023-03-22T08:17:58.984Z,3.80
2023-03-22T08:20:35.761Z,4.20
2023-03-22T08:23:12.153Z,4.10
2023-03-22T08:25:58.972Z,3.33
2023-03-22T08:28:27.625Z,3.10
2023-03-22T08:30:56.051Z,3.43
2023-03-22T08:33:25.361Z,3.97
2023-03-22T08:36:08.761Z,3.20
2023-03-22T08:38:45.206Z,3.10
2023-03-22T08:41:17.152Z,3.17
2023-03-22T08:43:45.615Z,3.17
2023-03-22T08:46:14.135Z,2.97
2023-03-22T08:48:50.479Z,2.80
2023-03-22T08:51:31.331Z,3.40
2023-03-22T08:54:20.315Z,3.20
2023-03-22T08:56:54.887Z,3.20
2023-03-22T08:59:37.115Z,3.37
2023-03-22T09:02:32.126Z,3.37
2023-03-22T09:05:01.195Z,3.90
2023-03-22T09:07:31.139Z,3.47
2023-03-22T09:10:17.780Z,3.57
2023-03-22T09:12:49.188Z,3.40
2023-03-22T09:15:18.154Z,3.87
2023-03-22T09:17:53.588Z,3.90
2023-03-22T09:20:25.402Z,3.70
2023-03-22T09:22:55.467Z,3.23
2023-03-22T09:25:24.371Z,3.60
2023-03-22T09:27:53.889Z,3.87
2023-03-22T09:30:22.734Z,3.60
2023-03-22T09:32:51.377Z,4.40
2023-03-22T09:35:20.062Z,3.87
2023-03-22T09:38:06.117Z,4.53
2023-03-22T09:40:36.295Z,3.20
2023-03-22T09:43:10.277Z,3.30
2023-03-22T09:45:42.367Z,3.50
2023-03-22T09:48:19.401Z,3.43
2023-03-22T09:50:52.472Z,3.50
2023-03-22T09:53:27.673Z,3.97
2023-03-22T09:56:02.778Z,4.20
2023-03-22T09:58:37.312Z,3.67
2023-03-22T10:01:16.319Z,4.33
2023-03-22T10:04:26.439Z,4.10
2023-03-22T10:07:07.505Z,3.90
2023-03-22T10:09:46.415Z,3.77
2023-03-22T10:12:24.387Z,3.63
2023-03-22T10:15:05.169Z,3.97
2023-03-22T10:17:34.343Z,3.97
2023-03-22T10:20:09.553Z,3.97
2023-03-22T10:22:45.367Z,3.63
2023-03-22T10:25:20.754Z,3.90
2023-03-22T10:27:53.099Z,3.10
2023-03-22T10:30:24.118Z,3.67
2023-03-22T10:32:59.361Z,3.70
2023-03-22T10:35:29.611Z,3.37
2023-03-22T10:38:02.896Z,3.97
2023-03-22T10:40:35.347Z,4.00
2023-03-22T10:43:09.111Z,2.97
2023-03-22T10:45:38.937Z,3.90
2023-03-22T10:48:12.814Z,3.53
2023-03-22T10:50:46.165Z,2.70
2023-03-22T10:53:25.818Z,3.20
2023-03-22T10:55:55.656Z,3.30
2023-03-22T10:58:29.524Z,3.60
2023-03-22T11:01:01.081Z,2.97
2023-03-22T11:03:37.284Z,3.40
2023-03-22T11:06:11.192Z,3.00
2023-03-22T11:08:46.775Z,3.17
2023-03-22T11:11:23.504Z,3.30
2023-03-22T11:14:04.033Z,3.77
2023-03-22T11:16:42.150Z,2.90
2023-03-22T11:19:18.605Z,3.00
2023-03-22T11:21:47.125Z,2.97
2023-03-22T11:24:16.368Z,3.33
2023-03-22T11:27:05.776Z,3.10
2023-03-22T11:29:44.190Z,2.70
2023-03-22T11:32:27.171Z,3.57
2023-03-22T11:35:06.859Z,2.63
2023-03-22T11:37:41.630Z,3.17
2023-03-22T11:40:16.964Z,4.07
2023-03-22T11:42:47.890Z,2.90
2023-03-22T11:45:21.762Z,3.00
2023-03-22T11:47:50.235Z,2.90
2023-03-22T11:50:29.311Z,2.57
2023-03-22T11:52:58.217Z,3.40
2023-03-22T11:55:27.552Z,3.07
2023-03-22T11:57:58.694Z,2.70
2023-03-22T12:00:30.813Z,3.37
2023-03-22T12:03:04.747Z,2.43
2023-03-22T12:05:35.400Z,2.90
2023-03-22T12:08:12.831Z,3.00
2023-03-22T12:10:44.762Z,2.60
2023-03-22T12:13:22.415Z,2.60
2023-03-22T12:15:56.324Z,3.60
2023-03-22T12:18:30.737Z,2.77
2023-03-22T12:21:01.648Z,2.90
2023-03-22T12:23:32.667Z,2.50
2023-03-22T12:26:06.444Z,3.73
2023-03-22T12:28:42.605Z,2.97
2023-03-22T12:31:18.870Z,3.23
2023-03-22T12:33:52.010Z,3.47
2023-03-22T12:36:28.198Z,3.50
2023-03-22T12:38:59.734Z,3.70
2023-03-22T12:41:34.980Z,3.83
2023-03-22T12:44:11.818Z,3.80
2023-03-22T12:46:51.589Z,4.47
2023-03-22T12:49:28.969Z,4.37
2023-03-22T12:52:12.580Z,4.67
2023-03-22T12:54:43.104Z,4.90
2023-03-22T12:57:12.828Z,4.50
2023-03-22T12:59:46.353Z,4.90
2023-03-22T13:02:19.464Z,5.07
2023-03-22T13:04:53.933Z,5.20
2023-03-22T13:07:51.514Z,5.80
2023-03-22T13:11:07.173Z,5.13
2023-03-22T13:13:46.596Z,5.53
2023-03-22T13:16:25.504Z,5.87
2023-03-22T13:19:17.972Z,5.70
2023-03-22T13:21:50.386Z,5.70
2023-03-22T13:24:24.088Z,5.67
2023-03-22T13:26:55.594Z,6.63
2023-03-22T13:29:26.658Z,5.47
2023-03-22T13:32:00.490Z,5.47
2023-03-22T13:34:38.729Z,5.67
2023-03-22T13:37:12.714Z,5.77
2023-03-22T13:39:42.193Z,4.83
2023-03-22T13:42:21.575Z,6.40
2023-03-22T13:45:00.062Z,5.80
2023-03-22T13:47:37.935Z,6.07
2023-03-22T13:50:18.017Z,7.03
2023-03-22T13:52:55.983Z,7.47
2023-03-22T13:55:58.270Z,7.07
2023-03-22T13:58:49.476Z,7.60
2023-03-22T14:01:28.263Z,6.87
2023-03-22T14:04:03.383Z,7.27
2023-03-22T14:06:36.220Z,6.10
2023-03-22T14:09:14.846Z,7.03
2023-03-22T14:11:49.825Z,6.43
2023-03-22T14:14:23.944Z,6.30
2023-03-22T14:16:59.316Z,6.70
2023-03-22T14:19:33.112Z,6.67
